Flight Track Log - Related Links

Times and Time Zones

All times are in EDT time to prevent confusion due to time zone crossing. See the WIG7412 flight status page for this flight to view local times or setup timezone preferences in your user account.

Time Position Orientation Groundspeed Altitude Reporting Facility
EDT Latitude Longitude Course Direction KTS MPH feet Rate Location/Type
Wed 10:46:00 AM 43.5163 -72.9638 217° Southwest  Level FlightAware Approximate
Wed 10:47:53 AM 43.5975 -72.9675 217° Southwest 140 161 6,100  Level Boston Center
Wed 10:48:54 AM 43.6244 -72.9706 355° North 120 138 7,000 446 Climbing Boston Center
Wed 10:49:54 AM 43.6558 -72.9739 356° North 113 130 7,000 151 Level Boston Center
Wed 10:50:53 AM 43.6411 -73.0167 245° Southwest 72 83 7,300 350 Climbing Boston Center
Wed 10:51:54 AM 43.6075 -73.0481 214° Southwest 98 113 7,700 403 Climbing Boston Center
Wed 10:52:52 AM 43.5719 -73.0764 210° Southwest 129 148 8,100 153 Climbing Boston Center
Wed 10:53:52 AM 43.5364 -73.1103 215° Southwest 149 171 8,000 -50 Descending Boston Center
Wed 10:54:53 AM 43.5006 -73.1442 214° Southwest 160 184 8,000  Level Boston Center
Wed 10:55:54 AM 43.4631 -73.1725 209° Southwest 160 184 8,000  Level Boston Center
Wed 10:56:54 AM 43.4253 -73.2061 213° Southwest 165 190 8,000  Level Boston Center
Wed 10:57:52 AM 43.3917 -73.2431 219° Southwest 165 190 8,000  Level Boston Center
Wed 10:58:52 AM 43.3539 -73.2739 211° Southwest 170 196 8,000  Level Boston Center
Wed 10:59:53 AM 43.3183 -73.3047 212° Southwest 170 196 8,000 -43 Level Boston Center
Wed 11:01:12 AM 43.2658 -73.3497 212° Southwest 159 183 7,900 -198 Descending Boston Center
Wed 11:01:54 AM 43.2364 -73.3719 209° Southwest 170 196 7,600 -412 Descending Boston Center
Wed 11:02:54 AM 43.1883 -73.3825 189° South 165 190 7,200 -610 Descending Boston Center
Wed 11:03:52 AM 43.1406 -73.3933 189° South 171 197 6,400 -744 Descending Boston Center
Wed 11:04:55 AM 43.0883 -73.4039 188° South 178 205 5,700 -600 Descending Boston Center
Wed 11:05:52 AM 43.0464 -73.4117 188° South 178 205 5,200 -661 Descending Boston Center
Wed 11:06:53 AM 43.0006 -73.4281 195° South 178 205 4,400 -659 Descending Boston Center
Wed 11:07:23 AM 42.9753 -73.4475 209° Southwest 161 185 4,200 -295 Descending Boston Center
Wed 11:07:54 AM 42.9628 -73.4586 213° Southwest 173 199 4,100 -197 Descending Boston Center
Wed 11:08:24 AM 42.9356 -73.4722 200° South 161 185 4,000 -100 Descending Boston Center
Wed 11:08:54 AM 42.9228 -73.4836 213° Southwest 168 193 4,000 -179 Level Boston Center
Wed 11:09:31 AM 42.8956 -73.5028 207° Southwest 154 177 3,800 -527 Descending Boston Center
Wed 11:10:25 AM 42.8619 -73.5278 209° Southwest 150 173 3,200 -417 Descending Boston Center
Wed 11:11:26 AM 42.8242 -73.5553 208° Southwest 150 173 3,000 -157 Descending Boston Center
Wed 11:12:20 AM 42.8011 -73.5861 224° Southwest 132 152 2,900 -209 Descending Boston Center
Wed 11:13:21 AM 42.7756 -73.6253 228° Southwest 133 153 2,600 -496 Descending Boston Center
Wed 11:14:21 AM 42.7583 -73.6758 245° Southwest 145 167 1,900 -700 Descending Boston Center
Wed 11:15:21 AM 42.7517 -73.7267 260° West 142 163 1,200 -694 Descending Boston Center
Wed 11:16:22 AM 42.7511 -73.7747 269° West 105 121 500 -689 Descending Boston Center
Wed 11:18:00 AM 42.7333 -73.8000 236° Southwest  Level FlightAware Approximate
Wed 11:25:00 AM 42.7491 -73.8020 236° Southwest  Level Estimated
Wed 11:26:00 AM 42.7491 -73.8020 236° Southwest  Level Estimated
Wed 11:27:00 AM 42.7491 -73.8020 236° Southwest  Level Estimated

Login

Don't have an account? Register now (free) for customized features, flight alerts, and more!